Time;durP1;ratioP1;P1;durP2;ratioP2;P2;SDS_P1;SDS_P2;PMS_P1;PMS_P2;Temp;Humidity;BMP_temperature;BMP_pressure;BME280_temperature;BME280_humidity;BME280_pressure;Samples;Min_cycle;Max_cycle;Signal;HPM_P1;HPM_P2
2022/05/14 00:00:07;;;;;;;;;;;20.00;96.90;20.10;99933.00;;;;346773;28;82409;-90
2022/05/14 00:00:21;;;;;;;;;;;20.00;96.90;20.10;99929.00;;;;346864;28;91837;-89
2022/05/14 00:00:33;;;;;;;;;;;20.00;96.90;20.10;99935.00;;;;348908;27;82556;-89
2022/05/14 00:00:44;;;;;;;;;;;20.00;96.90;20.10;99934.00;;;;348388;27;89016;-90
2022/05/14 00:00:57;;;;;;;;;;;20.00;96.90;20.00;99940.00;;;;346169;28;83246;-90
2022/05/14 00:01:09;;;;;;;;;;;20.00;96.90;20.10;99937.00;;;;345379;28;91334;-90
2022/05/14 00:01:21;;;;;;;;;;;20.00;96.80;20.10;99930.00;;;;347479;28;83441;-90
2022/05/14 00:01:33;;;;;;;;;;;20.00;96.80;20.10;99933.00;;;;348243;27;92631;-90
2022/05/14 00:01:45;;;;;;;;;;;20.00;96.80;20.10;99935.00;;;;348877;27;83456;-91
2022/05/14 00:01:58;;;;;;;;;;;20.00;96.80;20.10;99943.00;;;;345708;28;91575;-90
2022/05/14 00:02:11;;;;;;;;;;;20.00;96.80;20.10;99929.00;;;;347613;28;83355;-90
2022/05/14 00:02:22;;;;;;;;;;;20.00;96.80;20.10;99933.00;;;;348368;27;91251;-90
2022/05/14 00:02:34;;;;;;;;;;;20.00;96.80;20.10;99928.00;;;;347500;28;83185;-90
2022/05/14 00:02:46;;;;;;;;;;;20.00;96.90;20.10;99942.00;;;;348295;27;91391;-90
2022/05/14 00:02:58;;;;;;;;;;;20.00;96.90;20.10;99935.00;;;;347034;28;83496;-90
2022/05/14 00:03:10;;;;;;;;;;;20.00;96.90;20.00;99939.00;;;;343906;28;91588;-90
2022/05/14 00:03:21;;;;;;;;;;;20.00;96.90;20.00;99928.00;;;;347443;28;82527;-91
2022/05/14 00:03:33;;;;;;;;;;;20.00;96.90;20.00;99934.00;;;;345597;28;92814;-91
2022/05/14 00:03:47;;;;;;;;;;;20.00;97.00;20.10;99929.00;;;;346110;28;83383;-90
2022/05/14 00:03:59;;;;;;;;;;;20.00;97.00;20.10;99933.00;;;;347162;28;90512;-90
2022/05/14 00:04:11;;;;;;;;;;;20.00;97.00;20.10;99934.00;;;;346121;28;83376;-90
2022/05/14 00:04:23;;;;;;;;;;;20.00;97.00;20.00;99932.00;;;;347166;28;88965;-91
2022/05/14 00:04:35;;;;;;;;;;;20.00;97.20;20.00;99932.00;;;;347611;28;83371;-90
2022/05/14 00:04:46;;;;;;;;;;;20.00;97.00;20.10;99934.00;;;;345723;28;91629;-90
2022/05/14 00:04:58;;;;;;;;;;;20.00;97.00;20.10;99933.00;;;;343458;28;82445;-90
2022/05/14 00:05:10;;;;;;;;;;;20.00;97.10;20.10;99935.00;;;;345817;28;89139;-90
2022/05/14 00:05:24;;;;;;;;;;;20.00;97.10;20.00;99936.00;;;;346075;28;83524;-90
2022/05/14 00:05:36;;;;;;;;;;;20.00;97.10;20.00;99934.00;;;;347071;28;91166;-90
2022/05/14 00:05:48;;;;;;;;;;;20.00;97.10;20.10;99935.00;;;;346136;28;82635;-90
2022/05/14 00:06:03;;;;;;;;;;;20.00;97.10;20.10;99935.00;;;;344384;28;91312;-90
2022/05/14 00:06:16;;;;;;;;;;;20.00;97.10;20.10;99938.00;;;;344651;28;83488;-89
2022/05/14 00:06:29;;;;;;;;;;;20.00;97.10;20.00;99937.00;;;;345555;28;90322;-90
2022/05/14 00:06:40;;;;;;;;;;;20.00;97.10;20.00;99939.00;;;;346124;28;83346;-90
2022/05/14 00:06:52;;;;;;;;;;;20.00;97.00;20.00;99946.00;;;;347178;28;90356;-90
2022/05/14 00:07:04;;;;;;;;;;;20.00;97.10;20.00;99936.00;;;;346062;28;83439;-89
2022/05/14 00:07:16;;;;;;;;;;;20.00;97.10;20.00;99939.00;;;;347127;28;90491;-89
2022/05/14 00:07:27;;;;;;;;;;;20.00;97.10;20.10;99933.00;;;;344670;28;83451;-90
2022/05/14 00:07:39;;;;;;;;;;;20.00;97.10;20.00;99936.00;;;;342823;28;92562;-90
2022/05/14 00:07:51;;;;;;;;;;;20.00;97.20;19.90;99940.00;;;;343374;28;82369;-90
2022/05/14 00:08:03;;;;;;;;;;;20.00;97.20;19.90;99939.00;;;;344346;28;91575;-89
2022/05/14 00:08:15;;;;;;;;;;;19.90;97.20;20.00;99929.00;;;;344723;28;82360;-90
2022/05/14 00:08:28;;;;;;;;;;;19.90;97.20;20.00;99928.00;;;;345492;28;91739;-89
2022/05/14 00:08:40;;;;;;;;;;;19.90;97.30;20.00;99935.00;;;;347483;28;83375;-90
2022/05/14 00:08:52;;;;;;;;;;;19.90;97.20;20.00;99935.00;;;;345755;28;89951;-90
2022/05/14 00:09:05;;;;;;;;;;;19.90;97.20;20.00;99933.00;;;;346207;28;84051;-89
2022/05/14 00:09:17;;;;;;;;;;;19.90;97.20;20.00;99932.00;;;;345284;28;90539;-90
2022/05/14 00:09:29;;;;;;;;;;;19.90;97.20;20.00;99936.00;;;;344758;28;83198;-90
2022/05/14 00:09:41;;;;;;;;;;;19.90;97.20;20.10;99937.00;;;;344192;28;93116;-90
2022/05/14 00:09:52;;;;;;;;;;;19.90;97.20;20.00;99924.00;;;;344663;28;83386;-90
2022/05/14 00:10:05;;;;;;;;;;;19.90;97.10;20.00;99933.00;;;;346858;28;89505;-89
2022/05/14 00:10:21;;;;;;;;;;;19.90;97.10;20.00;99927.00;;;;346141;28;83350;-90
2022/05/14 00:13:03;;;;;;;;;;;19.90;97.20;20.00;99936.00;;;;345629;28;90066;-90
2022/05/14 00:13:07;;;;;;;;;;;19.90;97.30;19.90;99935.00;;;;347488;28;83275;-90
2022/05/14 00:13:24;;;;;;;;;;;19.90;97.40;19.80;99937.00;;;;348439;27;91994;-90
2022/05/14 00:13:37;;;;;;;;;;;19.80;97.40;19.90;99939.00;;;;346134;28;83394;-90
2022/05/14 00:13:48;;;;;;;;;;;19.80;97.40;19.80;99940.00;;;;345277;28;91697;-90
2022/05/14 00:14:03;;;;;;;;;;;19.80;97.70;19.80;99925.00;;;;348960;27;82380;-90
2022/05/14 00:14:14;;;;;;;;;;;19.80;97.50;19.90;99930.00;;;;345644;28;91345;-90
2022/05/14 00:14:26;;;;;;;;;;;19.80;97.50;19.90;99933.00;;;;346051;28;83397;-89
2022/05/14 00:14:38;;;;;;;;;;;19.80;97.40;19.90;99931.00;;;;348468;27;91540;-90
2022/05/14 00:14:50;;;;;;;;;;;19.80;97.50;19.90;99928.00;;;;346161;28;83350;-91
2022/05/14 00:15:02;;;;;;;;;;;19.80;97.50;19.90;99934.00;;;;345294;28;91883;-90
2022/05/14 00:15:13;;;;;;;;;;;19.80;97.50;19.90;99931.00;;;;345998;28;82540;-90
2022/05/14 00:15:26;;;;;;;;;;;19.80;97.40;19.90;99928.00;;;;345689;28;91203;-89
2022/05/14 00:15:40;;;;;;;;;;;19.80;97.40;19.90;99933.00;;;;344748;28;83375;-89
2022/05/14 00:15:52;;;;;;;;;;;19.80;97.50;20.00;99927.00;;;;344335;28;90411;-90
2022/05/14 00:16:04;;;;;;;;;;;19.80;97.50;19.90;99927.00;;;;344806;28;82541;-90
2022/05/14 00:16:16;;;;;;;;;;;19.80;97.50;19.90;99934.00;;;;345633;28;91576;-90
2022/05/14 00:16:28;;;;;;;;;;;19.80;97.40;19.90;99930.00;;;;347392;28;83516;-89
2022/05/14 00:16:40;;;;;;;;;;;19.80;97.50;19.90;99925.00;;;;344274;28;90470;-90
2022/05/14 00:16:52;;;;;;;;;;;19.80;97.50;19.90;99925.00;;;;344904;28;82510;-90
2022/05/14 00:17:04;;;;;;;;;;;19.80;97.50;20.00;99932.00;;;;344248;28;91599;-90
2022/05/14 00:17:16;;;;;;;;;;;19.80;97.50;20.00;99925.00;;;;346047;28;83404;-90
2022/05/14 00:17:28;;;;;;;;;;;19.80;97.50;20.00;99926.00;;;;347029;28;92765;-90
2022/05/14 00:17:40;;;;;;;;;;;19.80;97.50;19.90;99930.00;;;;347307;28;83479;-90
2022/05/14 00:17:54;;;;;;;;;;;19.80;97.60;20.00;99925.00;;;;344391;28;91469;-90
2022/05/14 00:18:07;;;;;;;;;;;19.80;97.50;20.00;99926.00;;;;348580;27;83207;-90
2022/05/14 00:18:21;;;;;;;;;;;19.80;97.50;20.00;99929.00;;;;344278;28;90869;-90
2022/05/14 00:18:33;;;;;;;;;;;19.80;97.50;20.00;99933.00;;;;344710;28;82537;-90
2022/05/14 00:18:45;;;;;;;;;;;19.80;97.50;20.00;99923.00;;;;344358;28;91210;-91
2022/05/14 00:18:57;;;;;;;;;;;19.80;97.50;20.00;99930.00;;;;348679;27;83358;-90
2022/05/14 00:19:08;;;;;;;;;;;19.80;97.50;20.00;99925.00;;;;346966;28;90279;-89
2022/05/14 00:19:20;;;;;;;;;;;19.80;97.50;19.90;99927.00;;;;347493;28;82338;-90
2022/05/14 00:19:32;;;;;;;;;;;19.80;97.40;19.90;99927.00;;;;347060;28;92304;-90
2022/05/14 00:19:44;;;;;;;;;;;19.80;97.40;20.00;99925.00;;;;347359;28;83588;-90
2022/05/14 00:19:55;;;;;;;;;;;19.80;97.40;20.00;99933.00;;;;347043;28;91693;-90
2022/05/14 00:20:08;;;;;;;;;;;19.80;97.40;20.00;99934.00;;;;344614;28;83329;-90
2022/05/14 00:20:20;;;;;;;;;;;19.80;97.40;19.90;99929.00;;;;346984;28;90673;-90
2022/05/14 00:20:32;;;;;;;;;;;19.80;97.40;19.90;99929.00;;;;347470;28;83700;-90
2022/05/14 00:20:44;;;;;;;;;;;19.80;97.40;19.90;99928.00;;;;345661;28;90875;-90
2022/05/14 00:20:56;;;;;;;;;;;19.80;97.50;19.90;99930.00;;;;346200;28;83360;-90
2022/05/14 00:21:08;;;;;;;;;;;19.80;97.50;19.80;99928.00;;;;348180;27;91358;-90
2022/05/14 00:21:21;;;;;;;;;;;19.80;97.50;19.80;99929.00;;;;346074;28;83375;-91
2022/05/14 00:21:34;;;;;;;;;;;19.80;97.50;19.80;99925.00;;;;347008;28;91470;-91
2022/05/14 00:21:46;;;;;;;;;;;19.80;97.60;19.80;99929.00;;;;346008;28;83472;-90
2022/05/14 00:21:58;;;;;;;;;;;19.80;97.60;19.90;99929.00;;;;345702;28;89918;-91
2022/05/14 00:22:10;;;;;;;;;;;19.80;97.60;20.00;99930.00;;;;346188;28;83304;-90
2022/05/14 00:22:21;;;;;;;;;;;19.70;97.60;19.90;99925.00;;;;348147;27;89739;-91
2022/05/14 00:22:33;;;;;;;;;;;19.80;97.70;19.90;99926.00;;;;344680;28;82358;-90
2022/05/14 00:22:45;;;;;;;;;;;19.80;97.70;19.90;99933.00;;;;346825;28;90448;-90
2022/05/14 00:22:58;;;;;;;;;;;19.80;97.70;19.90;99926.00;;;;344911;28;83344;-90
2022/05/14 00:23:10;;;;;;;;;;;19.80;97.70;19.90;99925.00;;;;345724;28;88373;-90
2022/05/14 00:23:22;;;;;;;;;;;19.80;97.70;19.90;99925.00;;;;348952;27;82353;-90
2022/05/14 00:23:34;;;;;;;;;;;19.80;97.70;19.90;99921.00;;;;346994;28;91129;-90
2022/05/14 00:23:45;;;;;;;;;;;19.80;97.70;20.00;99929.00;;;;347406;28;83454;-90
2022/05/14 00:23:58;;;;;;;;;;;19.80;97.70;20.00;99921.00;;;;348471;27;91295;-90
2022/05/14 00:24:10;;;;;;;;;;;19.80;97.70;19.90;99925.00;;;;347363;28;83575;-90
2022/05/14 00:24:23;;;;;;;;;;;19.80;97.70;19.90;99920.00;;;;346996;28;91692;-90
2022/05/14 00:24:35;;;;;;;;;;;19.80;97.70;19.90;99921.00;;;;347545;28;83307;-91
2022/05/14 00:24:46;;;;;;;;;;;19.80;97.70;20.00;99926.00;;;;344261;28;91793;-90
2022/05/14 00:24:58;;;;;;;;;;;19.80;97.70;19.90;99924.00;;;;348870;27;83242;-90
2022/05/14 00:25:10;;;;;;;;;;;19.80;97.70;19.90;99921.00;;;;345652;28;91586;-90
2022/05/14 00:25:23;;;;;;;;;;;19.80;97.70;19.90;99923.00;;;;347502;28;83418;-90
2022/05/14 00:25:35;;;;;;;;;;;19.80;97.70;19.90;99922.00;;;;347073;28;91368;-91
2022/05/14 00:25:47;;;;;;;;;;;19.80;97.80;20.00;99924.00;;;;345993;28;83422;-91
2022/05/14 00:25:58;;;;;;;;;;;19.80;97.70;19.90;99923.00;;;;346902;28;89527;-91
2022/05/14 00:26:10;;;;;;;;;;;19.80;97.70;20.00;99923.00;;;;347514;28;83368;-91
2022/05/14 00:26:22;;;;;;;;;;;19.80;97.70;20.00;99919.00;;;;348387;27;91988;-90
2022/05/14 00:26:35;;;;;;;;;;;19.80;97.70;20.00;99918.00;;;;351650;27;83473;-91
2022/05/14 00:26:47;;;;;;;;;;;19.80;97.70;20.00;99921.00;;;;348239;27;90710;-90
2022/05/14 00:26:58;;;;;;;;;;;19.80;97.70;20.00;99930.00;;;;347239;28;83287;-90
2022/05/14 00:27:10;;;;;;;;;;;19.80;97.70;19.90;99925.00;;;;347808;27;90911;-91
2022/05/14 00:27:22;;;;;;;;;;;19.80;97.80;19.90;99923.00;;;;347604;28;83131;-90
2022/05/14 00:27:34;;;;;;;;;;;19.80;97.80;19.90;99921.00;;;;346999;28;92552;-91
2022/05/14 00:27:46;;;;;;;;;;;19.80;97.80;20.00;99920.00;;;;346768;28;83382;-90
2022/05/14 00:27:57;;;;;;;;;;;19.80;97.80;20.00;99925.00;;;;344289;28;91661;-90
2022/05/14 00:28:09;;;;;;;;;;;19.80;97.80;20.00;99922.00;;;;351724;27;83287;-90
2022/05/14 00:28:21;;;;;;;;;;;19.80;97.80;19.90;99920.00;;;;346838;28;91146;-90
2022/05/14 00:28:33;;;;;;;;;;;19.80;97.80;19.80;99928.00;;;;346005;28;83412;-90
2022/05/14 00:28:46;;;;;;;;;;;19.80;97.80;19.90;99929.00;;;;349916;27;91290;-91
2022/05/14 00:28:59;;;;;;;;;;;19.70;97.80;19.90;99923.00;;;;347612;28;82495;-91
2022/05/14 00:29:13;;;;;;;;;;;19.80;97.80;19.90;99917.00;;;;344271;28;91412;-91
2022/05/14 00:29:27;;;;;;;;;;;19.70;97.80;20.00;99924.00;;;;348930;27;83342;-91
2022/05/14 00:29:38;;;;;;;;;;;19.70;97.90;20.00;99917.00;;;;345637;28;92198;-91
2022/05/14 00:29:50;;;;;;;;;;;19.80;97.90;20.00;99924.00;;;;344740;28;83491;-91
2022/05/14 00:30:02;;;;;;;;;;;19.70;97.80;20.00;99919.00;;;;348482;27;90423;-91
2022/05/14 00:30:14;;;;;;;;;;;19.70;97.80;19.90;99918.00;;;;347530;28;83337;-91
2022/05/14 00:30:27;;;;;;;;;;;19.80;97.80;19.90;99916.00;;;;345638;28;91558;-90
2022/05/14 00:30:40;;;;;;;;;;;19.70;97.80;19.90;99921.00;;;;344528;28;83360;-91
2022/05/14 00:30:52;;;;;;;;;;;19.80;97.80;19.90;99917.00;;;;345545;28;90424;-90
2022/05/14 00:31:03;;;;;;;;;;;19.80;97.80;19.90;99913.00;;;;344684;28;83421;-91
2022/05/14 00:31:16;;;;;;;;;;;19.80;97.90;19.90;99919.00;;;;345729;28;91501;-90
2022/05/14 00:31:29;;;;;;;;;;;19.80;97.80;20.00;99921.00;;;;347296;28;82623;-91
2022/05/14 00:31:41;;;;;;;;;;;19.80;97.80;20.00;99923.00;;;;344238;28;90589;-91
2022/05/14 00:31:53;;;;;;;;;;;19.80;97.80;20.00;99909.00;;;;346124;28;82610;-90
2022/05/14 00:32:05;;;;;;;;;;;19.80;97.80;20.00;99918.00;;;;346821;28;90551;-91
2022/05/14 00:32:17;;;;;;;;;;;19.80;97.80;20.00;99912.00;;;;346123;28;83247;-91
2022/05/14 00:32:29;;;;;;;;;;;19.80;97.80;20.00;99925.00;;;;346081;28;91214;-91
2022/05/14 00:32:41;;;;;;;;;;;19.80;97.80;19.90;99913.00;;;;347405;28;83402;-90
2022/05/14 00:32:53;;;;;;;;;;;19.80;97.70;19.90;99910.00;;;;347095;28;91790;-91
2022/05/14 00:33:05;;;;;;;;;;;19.80;97.70;20.00;99917.00;;;;344428;28;82526;-90
2022/05/14 00:33:17;;;;;;;;;;;19.80;97.70;20.00;99913.00;;;;347002;28;92028;-90
2022/05/14 00:33:29;;;;;;;;;;;19.80;97.70;19.90;99921.00;;;;347595;28;82486;-91
2022/05/14 00:33:40;;;;;;;;;;;19.80;97.70;19.90;99921.00;;;;348371;27;92129;-90
2022/05/14 00:33:52;;;;;;;;;;;19.80;97.70;19.90;99919.00;;;;347510;27;83431;-90
2022/05/14 00:34:04;;;;;;;;;;;19.80;97.70;19.80;99920.00;;;;345695;28;90087;-91
2022/05/14 00:34:16;;;;;;;;;;;19.80;97.70;19.80;99917.00;;;;348950;27;83310;-90
2022/05/14 00:34:28;;;;;;;;;;;19.80;97.70;19.90;99917.00;;;;345597;28;91704;-90
2022/05/14 00:34:39;;;;;;;;;;;19.80;97.70;19.90;99912.00;;;;347331;28;82580;-90
2022/05/14 00:34:51;;;;;;;;;;;19.80;97.70;19.90;99911.00;;;;347033;28;91633;-91
2022/05/14 00:35:04;;;;;;;;;;;19.80;97.80;19.90;99913.00;;;;346108;28;83396;-90
2022/05/14 00:35:16;;;;;;;;;;;19.80;97.90;19.90;99915.00;;;;346766;28;88038;-91
2022/05/14 00:35:28;;;;;;;;;;;19.70;97.90;19.90;99921.00;;;;347380;28;82576;-91
2022/05/14 00:35:40;;;;;;;;;;;19.70;97.90;19.90;99915.00;;;;346764;28;91672;-90
2022/05/14 00:35:52;;;;;;;;;;;19.70;97.90;19.90;99913.00;;;;347446;28;83332;-90
2022/05/14 00:36:04;;;;;;;;;;;19.80;97.90;19.90;99921.00;;;;344628;28;91547;-91
2022/05/14 00:36:16;;;;;;;;;;;19.80;97.80;19.80;99926.00;;;;347576;28;82371;-91
2022/05/14 00:36:27;;;;;;;;;;;19.80;97.80;19.90;99915.00;;;;344158;28;90480;-90
2022/05/14 00:36:39;;;;;;;;;;;19.70;97.80;19.90;99918.00;;;;347417;28;83461;-91
2022/05/14 00:36:51;;;;;;;;;;;19.70;97.90;19.80;99912.00;;;;348384;27;91818;-90
2022/05/14 00:37:03;;;;;;;;;;;19.80;98.00;19.80;99917.00;;;;350374;27;83230;-90
2022/05/14 00:37:16;;;;;;;;;;;19.70;97.90;19.80;99914.00;;;;344360;28;91915;-91
2022/05/14 00:37:28;;;;;;;;;;;19.70;98.00;19.70;99918.00;;;;344741;28;82394;-89
2022/05/14 00:37:40;;;;;;;;;;;19.70;98.10;19.80;99910.00;;;;344110;28;93280;-90
2022/05/14 00:37:51;;;;;;;;;;;19.70;98.00;19.80;99917.00;;;;343369;28;83331;-90
2022/05/14 00:38:04;;;;;;;;;;;19.70;98.00;19.80;99912.00;;;;344413;28;90504;-90
2022/05/14 00:38:16;;;;;;;;;;;19.70;98.00;19.70;99914.00;;;;346147;28;83386;-90
2022/05/14 00:38:28;;;;;;;;;;;19.70;98.00;19.70;99905.00;;;;345693;28;90432;-90
2022/05/14 00:38:41;;;;;;;;;;;19.70;98.00;19.60;99912.00;;;;347612;28;82509;-89
2022/05/14 00:38:54;;;;;;;;;;;19.70;98.00;19.70;99911.00;;;;347133;28;90231;-90
2022/05/14 00:39:06;;;;;;;;;;;19.70;98.00;19.60;99913.00;;;;345103;28;82614;-91
2022/05/14 00:39:17;;;;;;;;;;;19.60;98.10;19.50;99915.00;;;;347247;28;90366;-90
2022/05/14 00:39:29;;;;;;;;;;;19.60;98.10;19.50;99914.00;;;;346203;28;82409;-90
2022/05/14 00:39:42;;;;;;;;;;;19.60;98.10;19.60;99919.00;;;;347007;28;91309;-89
2022/05/14 00:39:54;;;;;;;;;;;19.60;98.20;19.60;99906.00;;;;348869;27;82523;-90
2022/05/14 00:40:09;;;;;;;;;;;19.60;98.20;19.70;99910.00;;;;347120;28;90265;-90
2022/05/14 00:40:26;;;;;;;;;;;19.60;98.10;19.80;99911.00;;;;346008;28;83384;-90
2022/05/14 00:40:45;;;;;;;;;;;19.60;98.20;19.70;99918.00;;;;345766;28;90231;-90
2022/05/14 00:40:58;;;;;;;;;;;19.60;98.20;19.70;99911.00;;;;344767;28;82402;-90
2022/05/14 00:41:10;;;;;;;;;;;19.60;98.20;19.70;99912.00;;;;345686;28;91411;-90
2022/05/14 00:41:23;;;;;;;;;;;19.60;98.20;19.70;99916.00;;;;346150;28;83406;-90
2022/05/14 00:41:36;;;;;;;;;;;19.60;98.30;19.70;99910.00;;;;345634;28;90260;-91
2022/05/14 00:41:48;;;;;;;;;;;19.60;98.30;19.60;99914.00;;;;344602;28;84161;-90
2022/05/14 00:42:00;;;;;;;;;;;19.60;98.20;19.60;99905.00;;;;347048;28;91219;-90
2022/05/14 00:42:13;;;;;;;;;;;19.60;98.20;19.50;99915.00;;;;346161;28;83479;-90
2022/05/14 00:42:25;;;;;;;;;;;19.60;98.30;19.60;99915.00;;;;344105;28;90356;-90
2022/05/14 00:42:37;;;;;;;;;;;19.60;98.30;19.60;99912.00;;;;346350;28;82471;-90
2022/05/14 00:42:49;;;;;;;;;;;19.60;98.30;19.70;99910.00;;;;345774;28;88394;-90
2022/05/14 00:43:01;;;;;;;;;;;19.60;98.30;19.60;99905.00;;;;346999;28;82659;-90
2022/05/14 00:43:13;;;;;;;;;;;19.50;98.30;19.60;99909.00;;;;346877;28;90966;-91
2022/05/14 00:43:29;;;;;;;;;;;19.50;98.30;19.60;99912.00;;;;346069;28;83330;-90
2022/05/14 00:43:54;;;;;;;;;;;19.50;98.30;19.70;99912.00;;;;346560;27;90419;-90
2022/05/14 00:44:06;;;;;;;;;;;19.50;98.30;19.70;99911.00;;;;347332;28;83493;-91
2022/05/14 00:44:18;;;;;;;;;;;19.50;98.30;19.70;99913.00;;;;347065;28;91215;-90
2022/05/14 00:44:30;;;;;;;;;;;19.50;98.30;19.60;99916.00;;;;346091;28;83593;-90
2022/05/14 00:44:41;;;;;;;;;;;19.50;98.30;19.70;99913.00;;;;345718;28;89705;-90
2022/05/14 00:44:53;;;;;;;;;;;19.50;98.20;19.60;99916.00;;;;347482;28;82441;-90
2022/05/14 00:45:06;;;;;;;;;;;19.50;98.30;19.60;99920.00;;;;346484;28;90146;-90
2022/05/14 00:45:18;;;;;;;;;;;19.50;98.40;19.50;99916.00;;;;346162;28;82369;-91
2022/05/14 00:45:31;;;;;;;;;;;19.50;98.50;19.50;99913.00;;;;345700;28;91274;-90
2022/05/14 00:45:54;;;;;;;;;;;19.50;98.50;19.60;99908.00;;;;346038;28;83292;-90
2022/05/14 00:46:18;;;;;;;;;;;19.50;98.50;19.70;99910.00;;;;344233;28;91641;-90
2022/05/14 00:46:57;;;;;;;;;;;19.50;98.40;19.70;99916.00;;;;346025;28;83379;-90
2022/05/14 00:47:14;;;;;;;;;;;19.50;98.50;19.70;99912.00;;;;345481;28;92678;-91
2022/05/14 00:47:26;;;;;;;;;;;19.50;98.80;19.70;99905.00;;;;350041;27;83496;-91
2022/05/14 00:47:39;;;;;;;;;;;19.50;98.60;19.70;99908.00;;;;345521;28;90251;-90
2022/05/14 00:47:56;;;;;;;;;;;19.50;98.50;19.70;99911.00;;;;346050;28;83299;-91
2022/05/14 00:48:08;;;;;;;;;;;19.50;98.50;19.70;99906.00;;;;346004;28;90439;-90
2022/05/14 00:48:20;;;;;;;;;;;19.50;98.50;19.60;99909.00;;;;347226;28;83408;-90
2022/05/14 00:48:38;;;;;;;;;;;19.50;98.40;19.70;99913.00;;;;346863;28;90329;-91
2022/05/14 00:48:51;;;;;;;;;;;19.50;98.40;19.70;99909.00;;;;350208;27;83322;-90
2022/05/14 00:49:03;;;;;;;;;;;19.50;98.50;19.60;99912.00;;;;346962;28;90449;-90
2022/05/14 00:49:22;;;;;;;;;;;19.50;98.50;19.60;99904.00;;;;347302;28;83440;-92
2022/05/14 00:49:34;;;;;;;;;;;19.50;98.50;19.70;99919.00;;;;344211;28;92271;-90
2022/05/14 00:49:46;;;;;;;;;;;19.50;98.40;19.60;99915.00;;;;344625;28;83516;-90
2022/05/14 00:49:58;;;;;;;;;;;19.50;98.50;19.60;99914.00;;;;347073;28;90008;-90
2022/05/14 00:50:31;;;;;;;;;;;19.50;98.50;19.70;99910.00;;;;347524;28;82421;-91
2022/05/14 00:50:44;;;;;;;;;;;19.50;98.50;19.70;99905.00;;;;345700;28;89868;-90
2022/05/14 00:50:57;;;;;;;;;;;19.50;98.50;19.60;99910.00;;;;344775;28;82366;-90
2022/05/14 00:51:14;;;;;;;;;;;19.50;98.40;19.70;99910.00;;;;346413;28;91503;-90
2022/05/14 00:51:29;;;;;;;;;;;19.50;98.40;19.60;99912.00;;;;347340;28;83314;-90
2022/05/14 00:51:42;;;;;;;;;;;19.50;98.50;19.60;99905.00;;;;347018;28;91823;-90
2022/05/14 00:51:54;;;;;;;;;;;19.50;98.50;19.60;99910.00;;;;344713;28;82619;-90
2022/05/14 00:52:06;;;;;;;;;;;19.50;98.50;19.70;99905.00;;;;344307;28;92262;-90
2022/05/14 00:52:19;;;;;;;;;;;19.50;98.40;19.60;99911.00;;;;347506;28;83402;-91
2022/05/14 00:52:31;;;;;;;;;;;19.50;98.50;19.70;99902.00;;;;344475;28;91105;-90
2022/05/14 00:52:44;;;;;;;;;;;19.50;98.60;19.70;99917.00;;;;344681;28;83392;-90
2022/05/14 00:53:19;;;;;;;;;;;19.50;98.60;19.80;99916.00;;;;345732;28;92093;-90
2022/05/14 00:53:37;;;;;;;;;;;19.50;98.60;19.70;99918.00;;;;346150;28;83402;-90
2022/05/14 00:53:50;;;;;;;;;;;19.50;98.50;19.80;99909.00;;;;346542;28;89193;-90
2022/05/14 00:54:05;;;;;;;;;;;19.50;98.50;19.80;99912.00;;;;345618;28;83787;-90
2022/05/14 00:54:21;;;;;;;;;;;19.50;98.50;19.80;99906.00;;;;345568;28;90535;-90
2022/05/14 00:54:37;;;;;;;;;;;19.50;98.50;19.80;99912.00;;;;347223;28;83309;-90
2022/05/14 00:54:52;;;;;;;;;;;19.50;98.40;19.70;99902.00;;;;346714;28;92832;-90
2022/05/14 00:55:05;;;;;;;;;;;19.50;98.40;19.80;99909.00;;;;344614;28;83472;-90
2022/05/14 00:55:17;;;;;;;;;;;19.50;98.40;19.70;99909.00;;;;345618;28;91276;-90
2022/05/14 00:55:28;;;;;;;;;;;19.50;98.40;19.60;99908.00;;;;348881;27;82378;-89
2022/05/14 00:55:40;;;;;;;;;;;19.50;98.40;19.70;99910.00;;;;347031;28;90195;-90
2022/05/14 00:55:54;;;;;;;;;;;19.50;98.40;19.70;99915.00;;;;348904;27;82312;-90
2022/05/14 00:56:08;;;;;;;;;;;19.50;98.50;19.60;99905.00;;;;345505;28;89981;-90
2022/05/14 00:56:23;;;;;;;;;;;19.50;98.50;19.60;99914.00;;;;346142;28;82361;-90
2022/05/14 00:56:37;;;;;;;;;;;19.50;98.40;19.70;99899.00;;;;344278;28;90624;-91
2022/05/14 00:56:52;;;;;;;;;;;19.50;98.50;19.70;99907.00;;;;347477;28;82480;-90
2022/05/14 00:57:06;;;;;;;;;;;19.50;98.50;19.70;99913.00;;;;346705;27;92258;-90
2022/05/14 00:57:22;;;;;;;;;;;19.50;98.50;19.70;99905.00;;;;344676;28;82582;-91
2022/05/14 00:57:36;;;;;;;;;;;19.50;98.50;19.70;99908.00;;;;345736;28;91507;-90
2022/05/14 00:57:48;;;;;;;;;;;19.50;98.50;19.60;99903.00;;;;345959;28;83542;-90
2022/05/14 00:58:00;;;;;;;;;;;19.50;98.50;19.60;99907.00;;;;347047;28;90134;-90
2022/05/14 00:58:20;;;;;;;;;;;19.50;98.50;19.70;99911.00;;;;348372;27;83341;-91
2022/05/14 00:58:40;;;;;;;;;;;19.50;98.50;19.70;99909.00;;;;344317;28;88677;-90
2022/05/14 00:58:55;;;;;;;;;;;19.50;98.50;19.70;99914.00;;;;344665;28;82363;-90
2022/05/14 00:59:10;;;;;;;;;;;19.50;98.50;19.60;99908.00;;;;345633;28;87969;-91
2022/05/14 00:59:22;;;;;;;;;;;19.50;98.50;19.50;99901.00;;;;344774;28;83354;-91
2022/05/14 00:59:34;;;;;;;;;;;19.50;98.50;19.60;99901.00;;;;345705;28;92309;-91
2022/05/14 00:59:46;;;;;;;;;;;19.50;98.50;19.60;99908.00;;;;347426;28;83425;-90
2022/05/14 00:59:58;;;;;;;;;;;19.50;98.50;19.70;99903.00;;;;344302;28;91251;-90
2022/05/14 01:00:19;;;;;;;;;;;19.50;98.60;19.60;99905.00;;;;347020;28;83447;-90
2022/05/14 01:00:32;;;;;;;;;;;19.50;98.70;19.50;99909.00;;;;348410;27;91571;-90
2022/05/14 01:00:44;;;;;;;;;;;19.50;98.60;19.50;99899.00;;;;348664;27;83340;-90
2022/05/14 01:00:55;;;;;;;;;;;19.50;98.60;19.50;99906.00;;;;345658;28;90441;-90
2022/05/14 01:01:07;;;;;;;;;;;19.50;98.70;19.40;99897.00;;;;347340;28;82546;-90
2022/05/14 01:01:19;;;;;;;;;;;19.40;98.70;19.40;99901.00;;;;347048;28;91387;-90
2022/05/14 01:01:31;;;;;;;;;;;19.40;98.70;19.50;99904.00;;;;347483;28;83291;-90
2022/05/14 01:01:43;;;;;;;;;;;19.40;98.70;19.60;99904.00;;;;345537;28;91452;-90
2022/05/14 01:01:55;;;;;;;;;;;19.40;98.70;19.60;99897.00;;;;343310;28;83521;-91
2022/05/14 01:02:07;;;;;;;;;;;19.40;98.80;19.50;99906.00;;;;347080;28;91770;-90
2022/05/14 01:02:19;;;;;;;;;;;19.40;98.70;19.50;99910.00;;;;345982;28;83402;-90
2022/05/14 01:02:31;;;;;;;;;;;19.40;98.80;19.50;99906.00;;;;345710;28;90123;-90
2022/05/14 01:02:42;;;;;;;;;;;19.40;98.80;19.50;99908.00;;;;346050;28;83278;-90
2022/05/14 01:02:55;;;;;;;;;;;19.40;98.80;19.40;99898.00;;;;347089;28;91244;-90
2022/05/14 01:03:06;;;;;;;;;;;19.40;98.80;19.40;99901.00;;;;345879;28;82484;-90
2022/05/14 01:03:18;;;;;;;;;;;19.40;98.80;19.40;99911.00;;;;346994;28;91473;-90
2022/05/14 01:03:30;;;;;;;;;;;19.40;98.90;19.40;99908.00;;;;347318;28;83321;-90
2022/05/14 01:03:42;;;;;;;;;;;19.40;98.90;19.40;99900.00;;;;345597;28;89933;-90
2022/05/14 01:03:54;;;;;;;;;;;19.40;98.90;19.40;99902.00;;;;344679;28;83436;-90
2022/05/14 01:04:06;;;;;;;;;;;19.40;98.90;19.30;99902.00;;;;344236;28;91600;-90
2022/05/14 01:04:20;;;;;;;;;;;19.40;99.00;19.30;99911.00;;;;345841;28;83520;-89
2022/05/14 01:04:32;;;;;;;;;;;19.30;99.10;19.30;99907.00;;;;344332;28;91387;-90
2022/05/14 01:04:44;;;;;;;;;;;19.30;99.10;19.30;99903.00;;;;345859;28;83541;-91
2022/05/14 01:04:55;;;;;;;;;;;19.30;99.10;19.40;99900.00;;;;346725;28;90185;-90
2022/05/14 01:05:09;;;;;;;;;;;19.30;99.10;19.30;99901.00;;;;344649;28;83449;-90
2022/05/14 01:05:21;;;;;;;;;;;19.30;99.10;19.30;99906.00;;;;344274;28;90462;-90
2022/05/14 01:05:33;;;;;;;;;;;19.30;99.10;19.30;99903.00;;;;346109;28;83350;-90
2022/05/14 01:05:47;;;;;;;;;;;19.30;99.20;19.20;99902.00;;;;345537;28;91620;-90
2022/05/14 01:06:00;;;;;;;;;;;19.30;99.30;19.20;99915.00;;;;344738;28;83353;-90
2022/05/14 01:06:14;;;;;;;;;;;19.20;99.30;19.20;99904.00;;;;344283;28;90670;-90
2022/05/14 01:06:26;;;;;;;;;;;19.20;99.30;19.20;99906.00;;;;343223;28;83463;-90